sensor_id;sensor_type;location;lat;lon;timestamp;P1;durP1;ratioP1;P2;durP2;ratioP2
3819;SDS011;1925;51.356;9.530;2022-08-03T00:01:24;7.87;;;3.27;;
3819;SDS011;1925;51.356;9.530;2022-08-03T00:03:50;3.00;;;2.73;;
3819;SDS011;1925;51.356;9.530;2022-08-03T00:06:16;7.07;;;3.90;;
3819;SDS011;1925;51.356;9.530;2022-08-03T00:08:42;3.17;;;2.97;;
3819;SDS011;1925;51.356;9.530;2022-08-03T00:11:08;4.60;;;3.20;;
3819;SDS011;1925;51.356;9.530;2022-08-03T00:13:34;3.73;;;2.90;;
3819;SDS011;1925;51.356;9.530;2022-08-03T00:16:00;6.10;;;2.70;;
3819;SDS011;1925;51.356;9.530;2022-08-03T00:18:26;7.10;;;3.03;;
3819;SDS011;1925;51.356;9.530;2022-08-03T00:20:52;3.93;;;3.60;;
3819;SDS011;1925;51.356;9.530;2022-08-03T00:23:18;3.90;;;3.50;;
3819;SDS011;1925;51.356;9.530;2022-08-03T00:25:44;3.30;;;3.00;;
3819;SDS011;1925;51.356;9.530;2022-08-03T00:28:10;7.17;;;3.00;;
3819;SDS011;1925;51.356;9.530;2022-08-03T00:30:36;3.20;;;2.90;;
3819;SDS011;1925;51.356;9.530;2022-08-03T00:33:02;4.73;;;2.90;;
3819;SDS011;1925;51.356;9.530;2022-08-03T00:35:28;3.00;;;2.80;;
3819;SDS011;1925;51.356;9.530;2022-08-03T00:37:55;4.27;;;3.07;;
3819;SDS011;1925;51.356;9.530;2022-08-03T00:40:22;3.70;;;3.50;;
3819;SDS011;1925;51.356;9.530;2022-08-03T00:42:52;3.30;;;2.93;;
3819;SDS011;1925;51.356;9.530;2022-08-03T00:45:22;3.17;;;2.87;;
3819;SDS011;1925;51.356;9.530;2022-08-03T00:47:48;3.83;;;3.50;;
3819;SDS011;1925;51.356;9.530;2022-08-03T00:50:15;3.53;;;3.00;;
3819;SDS011;1925;51.356;9.530;2022-08-03T00:52:42;7.10;;;3.67;;
3819;SDS011;1925;51.356;9.530;2022-08-03T00:55:08;4.03;;;2.90;;
3819;SDS011;1925;51.356;9.530;2022-08-03T00:57:34;4.93;;;3.50;;
3819;SDS011;1925;51.356;9.530;2022-08-03T01:00:01;4.10;;;2.73;;
3819;SDS011;1925;51.356;9.530;2022-08-03T01:02:27;3.73;;;3.00;;
3819;SDS011;1925;51.356;9.530;2022-08-03T01:04:53;3.37;;;3.17;;
3819;SDS011;1925;51.356;9.530;2022-08-03T01:07:29;5.40;;;3.13;;
3819;SDS011;1925;51.356;9.530;2022-08-03T01:15:09;3.10;;;2.90;;
3819;SDS011;1925;51.356;9.530;2022-08-03T01:17:57;2.90;;;2.67;;
3819;SDS011;1925;51.356;9.530;2022-08-03T01:20:25;3.87;;;3.20;;
3819;SDS011;1925;51.356;9.530;2022-08-03T01:23:15;3.60;;;3.03;;
3819;SDS011;1925;51.356;9.530;2022-08-03T01:30:44;3.10;;;2.90;;
3819;SDS011;1925;51.356;9.530;2022-08-03T01:33:17;3.87;;;3.47;;
3819;SDS011;1925;51.356;9.530;2022-08-03T01:35:49;4.00;;;2.93;;
3819;SDS011;1925;51.356;9.530;2022-08-03T01:38:29;8.47;;;3.00;;
3819;SDS011;1925;51.356;9.530;2022-08-03T01:41:00;4.23;;;2.97;;
3819;SDS011;1925;51.356;9.530;2022-08-03T01:43:28;3.63;;;3.33;;
3819;SDS011;1925;51.356;9.530;2022-08-03T01:45:55;3.40;;;3.10;;
3819;SDS011;1925;51.356;9.530;2022-08-03T01:48:21;3.60;;;3.30;;
3819;SDS011;1925;51.356;9.530;2022-08-03T01:50:48;4.17;;;2.77;;
3819;SDS011;1925;51.356;9.530;2022-08-03T01:53:14;5.93;;;3.27;;
3819;SDS011;1925;51.356;9.530;2022-08-03T01:55:42;3.47;;;3.27;;
3819;SDS011;1925;51.356;9.530;2022-08-03T01:58:09;3.30;;;3.10;;
3819;SDS011;1925;51.356;9.530;2022-08-03T02:00:35;3.57;;;3.10;;
3819;SDS011;1925;51.356;9.530;2022-08-03T02:03:03;5.00;;;4.60;;
3819;SDS011;1925;51.356;9.530;2022-08-03T02:05:30;3.30;;;3.10;;
3819;SDS011;1925;51.356;9.530;2022-08-03T02:07:56;3.07;;;2.87;;
3819;SDS011;1925;51.356;9.530;2022-08-03T02:10:23;5.80;;;3.47;;
3819;SDS011;1925;51.356;9.530;2022-08-03T02:12:50;3.73;;;2.97;;
3819;SDS011;1925;51.356;9.530;2022-08-03T02:15:16;3.90;;;2.67;;
3819;SDS011;1925;51.356;9.530;2022-08-03T02:17:44;5.70;;;3.53;;
3819;SDS011;1925;51.356;9.530;2022-08-03T02:20:10;6.37;;;3.57;;
3819;SDS011;1925;51.356;9.530;2022-08-03T02:22:38;4.33;;;3.67;;
3819;SDS011;1925;51.356;9.530;2022-08-03T02:25:04;3.60;;;3.40;;
3819;SDS011;1925;51.356;9.530;2022-08-03T02:27:31;3.10;;;2.90;;
3819;SDS011;1925;51.356;9.530;2022-08-03T02:30:03;4.43;;;3.23;;
3819;SDS011;1925;51.356;9.530;2022-08-03T02:32:31;5.70;;;3.37;;
3819;SDS011;1925;51.356;9.530;2022-08-03T02:34:59;4.63;;;3.47;;
3819;SDS011;1925;51.356;9.530;2022-08-03T02:37:26;3.83;;;3.40;;
3819;SDS011;1925;51.356;9.530;2022-08-03T02:39:54;4.10;;;3.10;;
3819;SDS011;1925;51.356;9.530;2022-08-03T02:42:22;3.33;;;2.87;;
3819;SDS011;1925;51.356;9.530;2022-08-03T02:44:49;3.20;;;3.00;;
3819;SDS011;1925;51.356;9.530;2022-08-03T02:47:17;3.50;;;3.20;;
3819;SDS011;1925;51.356;9.530;2022-08-03T02:49:45;3.13;;;2.93;;
3819;SDS011;1925;51.356;9.530;2022-08-03T02:52:12;6.93;;;3.97;;
3819;SDS011;1925;51.356;9.530;2022-08-03T02:54:39;4.27;;;3.37;;
3819;SDS011;1925;51.356;9.530;2022-08-03T02:57:06;3.10;;;2.90;;
3819;SDS011;1925;51.356;9.530;2022-08-03T02:59:33;3.77;;;3.27;;
3819;SDS011;1925;51.356;9.530;2022-08-03T03:01:59;3.13;;;2.83;;
3819;SDS011;1925;51.356;9.530;2022-08-03T03:04:27;3.33;;;3.13;;
3819;SDS011;1925;51.356;9.530;2022-08-03T03:06:54;4.23;;;3.80;;
3819;SDS011;1925;51.356;9.530;2022-08-03T03:09:20;3.43;;;3.23;;
3819;SDS011;1925;51.356;9.530;2022-08-03T03:11:48;8.63;;;3.40;;
3819;SDS011;1925;51.356;9.530;2022-08-03T03:14:15;3.90;;;2.90;;
3819;SDS011;1925;51.356;9.530;2022-08-03T03:16:42;4.40;;;3.70;;
3819;SDS011;1925;51.356;9.530;2022-08-03T03:19:09;7.53;;;3.50;;
3819;SDS011;1925;51.356;9.530;2022-08-03T03:21:36;3.67;;;3.37;;
3819;SDS011;1925;51.356;9.530;2022-08-03T03:24:02;3.80;;;3.13;;
3819;SDS011;1925;51.356;9.530;2022-08-03T03:26:29;4.00;;;3.63;;
3819;SDS011;1925;51.356;9.530;2022-08-03T03:28:55;4.17;;;2.77;;
3819;SDS011;1925;51.356;9.530;2022-08-03T03:31:22;3.27;;;2.97;;
3819;SDS011;1925;51.356;9.530;2022-08-03T03:33:48;2.83;;;2.63;;
3819;SDS011;1925;51.356;9.530;2022-08-03T03:36:14;4.37;;;3.97;;
3819;SDS011;1925;51.356;9.530;2022-08-03T03:38:40;4.27;;;3.87;;
3819;SDS011;1925;51.356;9.530;2022-08-03T03:41:06;3.40;;;3.10;;
3819;SDS011;1925;51.356;9.530;2022-08-03T03:43:32;4.20;;;3.90;;
3819;SDS011;1925;51.356;9.530;2022-08-03T03:45:58;3.37;;;3.10;;
3819;SDS011;1925;51.356;9.530;2022-08-03T03:48:25;5.20;;;3.60;;
3819;SDS011;1925;51.356;9.530;2022-08-03T03:50:52;7.77;;;3.27;;
3819;SDS011;1925;51.356;9.530;2022-08-03T03:53:18;3.23;;;3.03;;
3819;SDS011;1925;51.356;9.530;2022-08-03T03:55:44;3.20;;;3.00;;
3819;SDS011;1925;51.356;9.530;2022-08-03T03:58:10;3.90;;;3.50;;
3819;SDS011;1925;51.356;9.530;2022-08-03T04:00:36;6.40;;;3.10;;
3819;SDS011;1925;51.356;9.530;2022-08-03T04:03:02;7.30;;;3.27;;
3819;SDS011;1925;51.356;9.530;2022-08-03T04:05:28;6.67;;;3.50;;
3819;SDS011;1925;51.356;9.530;2022-08-03T04:08:15;3.80;;;3.50;;
3819;SDS011;1925;51.356;9.530;2022-08-03T04:11:17;3.57;;;3.27;;
3819;SDS011;1925;51.356;9.530;2022-08-03T04:16:14;4.20;;;2.50;;
3819;SDS011;1925;51.356;9.530;2022-08-03T04:18:41;3.53;;;3.07;;
3819;SDS011;1925;51.356;9.530;2022-08-03T04:21:11;3.73;;;3.43;;
3819;SDS011;1925;51.356;9.530;2022-08-03T04:23:43;3.73;;;3.43;;
3819;SDS011;1925;51.356;9.530;2022-08-03T04:26:10;4.03;;;3.57;;
3819;SDS011;1925;51.356;9.530;2022-08-03T04:28:37;6.43;;;3.90;;
3819;SDS011;1925;51.356;9.530;2022-08-03T04:31:04;4.70;;;3.60;;
3819;SDS011;1925;51.356;9.530;2022-08-03T04:33:32;3.60;;;3.30;;
3819;SDS011;1925;51.356;9.530;2022-08-03T04:35:59;3.67;;;3.37;;
3819;SDS011;1925;51.356;9.530;2022-08-03T04:38:25;7.40;;;3.67;;
3819;SDS011;1925;51.356;9.530;2022-08-03T04:40:52;3.53;;;3.30;;
3819;SDS011;1925;51.356;9.530;2022-08-03T04:43:18;4.00;;;3.67;;
3819;SDS011;1925;51.356;9.530;2022-08-03T04:45:45;3.33;;;2.80;;
3819;SDS011;1925;51.356;9.530;2022-08-03T04:48:13;2.93;;;2.73;;
3819;SDS011;1925;51.356;9.530;2022-08-03T04:50:39;3.57;;;3.27;;
3819;SDS011;1925;51.356;9.530;2022-08-03T04:53:05;4.50;;;3.20;;
3819;SDS011;1925;51.356;9.530;2022-08-03T04:55:32;5.07;;;3.47;;
3819;SDS011;1925;51.356;9.530;2022-08-03T04:57:58;5.07;;;3.40;;
3819;SDS011;1925;51.356;9.530;2022-08-03T05:00:25;3.67;;;3.33;;
3819;SDS011;1925;51.356;9.530;2022-08-03T05:02:51;3.60;;;3.30;;
3819;SDS011;1925;51.356;9.530;2022-08-03T05:05:18;4.17;;;3.10;;
3819;SDS011;1925;51.356;9.530;2022-08-03T05:07:44;4.00;;;3.07;;
3819;SDS011;1925;51.356;9.530;2022-08-03T05:10:10;7.53;;;3.30;;
3819;SDS011;1925;51.356;9.530;2022-08-03T05:12:37;4.10;;;3.70;;
3819;SDS011;1925;51.356;9.530;2022-08-03T05:15:03;6.33;;;3.33;;
3819;SDS011;1925;51.356;9.530;2022-08-03T05:17:29;4.33;;;3.70;;
3819;SDS011;1925;51.356;9.530;2022-08-03T05:19:55;3.87;;;3.43;;
3819;SDS011;1925;51.356;9.530;2022-08-03T05:22:22;7.63;;;3.63;;
3819;SDS011;1925;51.356;9.530;2022-08-03T05:24:48;2.93;;;2.73;;
3819;SDS011;1925;51.356;9.530;2022-08-03T05:27:14;3.73;;;3.33;;
3819;SDS011;1925;51.356;9.530;2022-08-03T05:29:52;3.60;;;3.30;;
3819;SDS011;1925;51.356;9.530;2022-08-03T05:32:18;3.60;;;3.37;;
3819;SDS011;1925;51.356;9.530;2022-08-03T05:34:44;11.10;;;3.93;;
3819;SDS011;1925;51.356;9.530;2022-08-03T05:37:10;4.23;;;3.40;;
3819;SDS011;1925;51.356;9.530;2022-08-03T05:39:36;3.50;;;3.20;;
3819;SDS011;1925;51.356;9.530;2022-08-03T05:42:02;10.30;;;4.07;;
3819;SDS011;1925;51.356;9.530;2022-08-03T05:44:28;4.53;;;3.83;;
3819;SDS011;1925;51.356;9.530;2022-08-03T05:46:55;4.23;;;3.40;;
3819;SDS011;1925;51.356;9.530;2022-08-03T05:49:21;6.50;;;3.40;;
3819;SDS011;1925;51.356;9.530;2022-08-03T05:51:47;4.40;;;3.50;;
3819;SDS011;1925;51.356;9.530;2022-08-03T05:54:13;7.47;;;3.77;;
3819;SDS011;1925;51.356;9.530;2022-08-03T05:56:39;3.60;;;3.30;;
3819;SDS011;1925;51.356;9.530;2022-08-03T05:59:05;5.10;;;3.70;;
3819;SDS011;1925;51.356;9.530;2022-08-03T06:01:31;5.13;;;4.50;;
3819;SDS011;1925;51.356;9.530;2022-08-03T06:03:57;3.77;;;3.47;;
3819;SDS011;1925;51.356;9.530;2022-08-03T06:06:24;3.67;;;3.37;;
3819;SDS011;1925;51.356;9.530;2022-08-03T06:08:50;4.03;;;3.73;;
3819;SDS011;1925;51.356;9.530;2022-08-03T06:11:16;4.23;;;3.50;;
3819;SDS011;1925;51.356;9.530;2022-08-03T06:13:42;4.33;;;3.67;;
3819;SDS011;1925;51.356;9.530;2022-08-03T06:16:08;3.40;;;3.13;;
3819;SDS011;1925;51.356;9.530;2022-08-03T06:18:35;3.80;;;3.43;;
3819;SDS011;1925;51.356;9.530;2022-08-03T06:21:01;4.90;;;3.70;;
3819;SDS011;1925;51.356;9.530;2022-08-03T06:23:28;4.00;;;3.50;;
3819;SDS011;1925;51.356;9.530;2022-08-03T06:25:54;5.03;;;4.43;;
3819;SDS011;1925;51.356;9.530;2022-08-03T06:28:20;4.23;;;3.83;;
3819;SDS011;1925;51.356;9.530;2022-08-03T06:30:46;3.80;;;3.50;;
3819;SDS011;1925;51.356;9.530;2022-08-03T06:33:12;5.33;;;4.33;;
3819;SDS011;1925;51.356;9.530;2022-08-03T06:35:38;4.00;;;3.60;;
3819;SDS011;1925;51.356;9.530;2022-08-03T06:38:04;6.20;;;3.73;;
3819;SDS011;1925;51.356;9.530;2022-08-03T06:40:30;4.43;;;3.90;;
3819;SDS011;1925;51.356;9.530;2022-08-03T06:42:58;7.03;;;3.97;;
3819;SDS011;1925;51.356;9.530;2022-08-03T06:45:24;3.73;;;3.43;;
3819;SDS011;1925;51.356;9.530;2022-08-03T06:48:00;5.23;;;3.53;;
3819;SDS011;1925;51.356;9.530;2022-08-03T06:50:26;4.27;;;3.67;;
3819;SDS011;1925;51.356;9.530;2022-08-03T06:52:52;3.90;;;3.50;;
3819;SDS011;1925;51.356;9.530;2022-08-03T06:55:18;9.33;;;4.10;;
3819;SDS011;1925;51.356;9.530;2022-08-03T06:57:44;3.37;;;3.07;;
3819;SDS011;1925;51.356;9.530;2022-08-03T07:00:10;3.60;;;3.30;;
3819;SDS011;1925;51.356;9.530;2022-08-03T07:02:36;10.73;;;3.50;;
3819;SDS011;1925;51.356;9.530;2022-08-03T07:05:03;3.13;;;2.93;;
3819;SDS011;1925;51.356;9.530;2022-08-03T07:07:29;4.60;;;3.10;;
3819;SDS011;1925;51.356;9.530;2022-08-03T07:09:55;4.30;;;3.47;;
3819;SDS011;1925;51.356;9.530;2022-08-03T07:12:21;3.83;;;3.17;;
3819;SDS011;1925;51.356;9.530;2022-08-03T07:14:47;3.67;;;3.37;;
3819;SDS011;1925;51.356;9.530;2022-08-03T07:17:13;4.10;;;3.70;;
3819;SDS011;1925;51.356;9.530;2022-08-03T07:19:39;7.27;;;3.17;;
3819;SDS011;1925;51.356;9.530;2022-08-03T07:22:05;5.87;;;3.30;;
3819;SDS011;1925;51.356;9.530;2022-08-03T07:24:32;5.00;;;3.10;;
3819;SDS011;1925;51.356;9.530;2022-08-03T07:26:58;3.20;;;2.83;;
3819;SDS011;1925;51.356;9.530;2022-08-03T07:29:25;3.77;;;3.20;;
3819;SDS011;1925;51.356;9.530;2022-08-03T07:31:51;6.60;;;3.83;;
3819;SDS011;1925;51.356;9.530;2022-08-03T07:34:17;6.20;;;3.33;;
3819;SDS011;1925;51.356;9.530;2022-08-03T07:36:43;3.83;;;3.47;;
3819;SDS011;1925;51.356;9.530;2022-08-03T07:39:09;4.70;;;3.20;;
3819;SDS011;1925;51.356;9.530;2022-08-03T07:41:35;4.47;;;2.60;;
3819;SDS011;1925;51.356;9.530;2022-08-03T07:44:01;5.03;;;3.03;;
3819;SDS011;1925;51.356;9.530;2022-08-03T07:46:27;5.83;;;2.70;;
3819;SDS011;1925;51.356;9.530;2022-08-03T07:48:53;5.33;;;2.33;;
3819;SDS011;1925;51.356;9.530;2022-08-03T07:51:19;6.43;;;2.70;;
3819;SDS011;1925;51.356;9.530;2022-08-03T07:53:45;2.60;;;2.40;;
3819;SDS011;1925;51.356;9.530;2022-08-03T07:56:11;3.63;;;2.40;;
3819;SDS011;1925;51.356;9.530;2022-08-03T07:58:37;6.87;;;3.67;;
3819;SDS011;1925;51.356;9.530;2022-08-03T08:01:03;3.67;;;3.33;;
3819;SDS011;1925;51.356;9.530;2022-08-03T08:03:29;3.27;;;2.67;;
3819;SDS011;1925;51.356;9.530;2022-08-03T08:05:55;3.73;;;2.90;;
3819;SDS011;1925;51.356;9.530;2022-08-03T08:08:21;3.70;;;3.40;;
3819;SDS011;1925;51.356;9.530;2022-08-03T08:10:47;3.43;;;2.80;;
3819;SDS011;1925;51.356;9.530;2022-08-03T08:13:13;2.60;;;2.40;;
3819;SDS011;1925;51.356;9.530;2022-08-03T08:15:39;2.83;;;2.23;;
3819;SDS011;1925;51.356;9.530;2022-08-03T08:18:05;2.80;;;2.50;;
3819;SDS011;1925;51.356;9.530;2022-08-03T08:20:32;3.10;;;2.27;;
3819;SDS011;1925;51.356;9.530;2022-08-03T08:22:59;3.10;;;2.60;;
3819;SDS011;1925;51.356;9.530;2022-08-03T08:25:26;3.10;;;2.30;;
3819;SDS011;1925;51.356;9.530;2022-08-03T08:27:52;2.57;;;2.33;;
3819;SDS011;1925;51.356;9.530;2022-08-03T08:30:18;2.90;;;2.70;;
3819;SDS011;1925;51.356;9.530;2022-08-03T08:32:45;2.70;;;2.50;;
3819;SDS011;1925;51.356;9.530;2022-08-03T08:35:11;2.27;;;2.10;;
3819;SDS011;1925;51.356;9.530;2022-08-03T08:37:37;4.27;;;2.30;;
3819;SDS011;1925;51.356;9.530;2022-08-03T08:40:04;4.03;;;2.33;;
3819;SDS011;1925;51.356;9.530;2022-08-03T08:42:31;2.93;;;2.00;;
3819;SDS011;1925;51.356;9.530;2022-08-03T08:44:57;6.07;;;2.33;;
3819;SDS011;1925;51.356;9.530;2022-08-03T08:47:23;2.43;;;2.10;;
3819;SDS011;1925;51.356;9.530;2022-08-03T08:49:53;2.33;;;1.63;;
3819;SDS011;1925;51.356;9.530;2022-08-03T08:52:26;2.33;;;2.13;;
3819;SDS011;1925;51.356;9.530;2022-08-03T08:55:02;2.50;;;2.30;;
3819;SDS011;1925;51.356;9.530;2022-08-03T08:57:30;4.13;;;2.50;;
3819;SDS011;1925;51.356;9.530;2022-08-03T08:59:58;2.10;;;1.90;;
3819;SDS011;1925;51.356;9.530;2022-08-03T09:02:24;5.90;;;1.57;;
3819;SDS011;1925;51.356;9.530;2022-08-03T09:04:51;2.57;;;2.07;;
3819;SDS011;1925;51.356;9.530;2022-08-03T09:07:17;4.23;;;2.50;;
3819;SDS011;1925;51.356;9.530;2022-08-03T09:09:43;5.10;;;2.53;;
3819;SDS011;1925;51.356;9.530;2022-08-03T09:12:09;8.90;;;2.33;;
3819;SDS011;1925;51.356;9.530;2022-08-03T09:14:35;3.63;;;1.93;;
3819;SDS011;1925;51.356;9.530;2022-08-03T09:17:02;2.60;;;2.40;;
3819;SDS011;1925;51.356;9.530;2022-08-03T09:19:30;3.67;;;2.53;;
3819;SDS011;1925;51.356;9.530;2022-08-03T09:27:20;4.40;;;2.77;;
3819;SDS011;1925;51.356;9.530;2022-08-03T09:29:47;3.17;;;2.53;;
3819;SDS011;1925;51.356;9.530;2022-08-03T09:32:13;2.47;;;2.27;;
3819;SDS011;1925;51.356;9.530;2022-08-03T09:34:40;4.47;;;2.30;;
3819;SDS011;1925;51.356;9.530;2022-08-03T09:37:13;2.30;;;2.10;;
3819;SDS011;1925;51.356;9.530;2022-08-03T09:39:40;11.73;;;2.40;;
3819;SDS011;1925;51.356;9.530;2022-08-03T09:42:07;2.50;;;1.97;;
3819;SDS011;1925;51.356;9.530;2022-08-03T09:44:36;5.20;;;2.30;;
3819;SDS011;1925;51.356;9.530;2022-08-03T09:47:03;6.30;;;2.23;;
3819;SDS011;1925;51.356;9.530;2022-08-03T09:49:30;2.83;;;2.57;;
3819;SDS011;1925;51.356;9.530;2022-08-03T09:51:56;2.10;;;1.90;;
3819;SDS011;1925;51.356;9.530;2022-08-03T09:54:26;2.70;;;1.93;;
3819;SDS011;1925;51.356;9.530;2022-08-03T09:56:52;2.10;;;1.90;;
3819;SDS011;1925;51.356;9.530;2022-08-03T09:59:26;2.67;;;2.07;;
3819;SDS011;1925;51.356;9.530;2022-08-03T10:01:53;2.03;;;1.83;;
3819;SDS011;1925;51.356;9.530;2022-08-03T10:04:19;4.73;;;3.80;;
3819;SDS011;1925;51.356;9.530;2022-08-03T10:07:00;4.87;;;1.90;;
3819;SDS011;1925;51.356;9.530;2022-08-03T10:09:26;4.80;;;1.93;;
3819;SDS011;1925;51.356;9.530;2022-08-03T10:11:52;2.17;;;1.77;;
3819;SDS011;1925;51.356;9.530;2022-08-03T10:14:18;1.80;;;1.70;;
3819;SDS011;1925;51.356;9.530;2022-08-03T10:16:45;17.00;;;3.53;;
3819;SDS011;1925;51.356;9.530;2022-08-03T10:19:11;3.70;;;2.20;;
3819;SDS011;1925;51.356;9.530;2022-08-03T10:21:40;1.97;;;1.87;;
3819;SDS011;1925;51.356;9.530;2022-08-03T10:24:07;2.30;;;1.77;;
3819;SDS011;1925;51.356;9.530;2022-08-03T10:26:35;2.67;;;2.47;;
3819;SDS011;1925;51.356;9.530;2022-08-03T10:29:04;1.97;;;1.77;;
3819;SDS011;1925;51.356;9.530;2022-08-03T10:31:39;2.07;;;1.73;;
3819;SDS011;1925;51.356;9.530;2022-08-03T10:34:10;2.53;;;2.00;;
3819;SDS011;1925;51.356;9.530;2022-08-03T10:36:40;2.60;;;1.80;;
3819;SDS011;1925;51.356;9.530;2022-08-03T10:39:06;3.87;;;2.30;;
3819;SDS011;1925;51.356;9.530;2022-08-03T10:41:33;2.20;;;2.00;;
3819;SDS011;1925;51.356;9.530;2022-08-03T10:44:07;3.03;;;2.13;;
3819;SDS011;1925;51.356;9.530;2022-08-03T10:46:34;3.37;;;2.40;;
3819;SDS011;1925;51.356;9.530;2022-08-03T10:49:01;2.20;;;2.10;;
3819;SDS011;1925;51.356;9.530;2022-08-03T10:51:27;2.10;;;2.00;;
3819;SDS011;1925;51.356;9.530;2022-08-03T10:53:57;2.03;;;1.93;;
3819;SDS011;1925;51.356;9.530;2022-08-03T10:59:17;3.10;;;2.10;;
3819;SDS011;1925;51.356;9.530;2022-08-03T11:01:51;2.30;;;2.10;;
3819;SDS011;1925;51.356;9.530;2022-08-03T11:04:18;2.13;;;2.03;;
3819;SDS011;1925;51.356;9.530;2022-08-03T11:06:45;2.33;;;2.13;;
3819;SDS011;1925;51.356;9.530;2022-08-03T11:11:38;4.57;;;2.30;;
3819;SDS011;1925;51.356;9.530;2022-08-03T11:14:06;3.40;;;2.40;;
3819;SDS011;1925;51.356;9.530;2022-08-03T11:16:39;2.60;;;2.23;;
3819;SDS011;1925;51.356;9.530;2022-08-03T11:19:06;2.13;;;1.93;;
3819;SDS011;1925;51.356;9.530;2022-08-03T11:35:13;4.27;;;2.03;;
3819;SDS011;1925;51.356;9.530;2022-08-03T11:45:57;3.60;;;2.10;;
3819;SDS011;1925;51.356;9.530;2022-08-03T11:48:25;3.47;;;2.10;;
3819;SDS011;1925;51.356;9.530;2022-08-03T11:50:53;2.37;;;1.80;;
3819;SDS011;1925;51.356;9.530;2022-08-03T11:53:20;4.63;;;2.33;;
3819;SDS011;1925;51.356;9.530;2022-08-03T11:55:46;5.20;;;2.10;;
3819;SDS011;1925;51.356;9.530;2022-08-03T11:58:21;4.50;;;2.37;;
3819;SDS011;1925;51.356;9.530;2022-08-03T12:00:47;2.23;;;2.00;;
3819;SDS011;1925;51.356;9.530;2022-08-03T12:03:15;2.23;;;2.00;;
3819;SDS011;1925;51.356;9.530;2022-08-03T12:05:44;1.83;;;1.73;;
3819;SDS011;1925;51.356;9.530;2022-08-03T12:08:11;2.57;;;2.37;;
3819;SDS011;1925;51.356;9.530;2022-08-03T12:10:37;6.60;;;1.90;;
3819;SDS011;1925;51.356;9.530;2022-08-03T12:13:04;2.10;;;2.00;;
3819;SDS011;1925;51.356;9.530;2022-08-03T12:15:33;1.90;;;1.80;;
3819;SDS011;1925;51.356;9.530;2022-08-03T12:18:00;2.70;;;2.03;;
3819;SDS011;1925;51.356;9.530;2022-08-03T12:20:28;3.10;;;2.87;;
3819;SDS011;1925;51.356;9.530;2022-08-03T12:23:00;1.97;;;1.77;;
3819;SDS011;1925;51.356;9.530;2022-08-03T12:25:26;3.27;;;1.93;;
3819;SDS011;1925;51.356;9.530;2022-08-03T12:27:53;4.33;;;2.13;;
3819;SDS011;1925;51.356;9.530;2022-08-03T12:30:30;3.80;;;2.00;;
3819;SDS011;1925;51.356;9.530;2022-08-03T12:32:56;2.10;;;1.90;;
3819;SDS011;1925;51.356;9.530;2022-08-03T12:35:22;4.77;;;1.87;;
3819;SDS011;1925;51.356;9.530;2022-08-03T12:37:50;2.03;;;1.83;;
3819;SDS011;1925;51.356;9.530;2022-08-03T12:40:24;1.90;;;1.80;;
3819;SDS011;1925;51.356;9.530;2022-08-03T12:42:51;4.13;;;2.20;;
3819;SDS011;1925;51.356;9.530;2022-08-03T12:45:21;2.87;;;1.70;;
3819;SDS011;1925;51.356;9.530;2022-08-03T12:47:51;2.70;;;1.70;;
3819;SDS011;1925;51.356;9.530;2022-08-03T12:50:24;2.30;;;2.10;;
3819;SDS011;1925;51.356;9.530;2022-08-03T12:52:53;6.93;;;2.10;;
3819;SDS011;1925;51.356;9.530;2022-08-03T12:55:21;1.90;;;1.80;;
3819;SDS011;1925;51.356;9.530;2022-08-03T12:57:48;4.23;;;2.10;;
3819;SDS011;1925;51.356;9.530;2022-08-03T13:00:16;3.00;;;2.57;;
3819;SDS011;1925;51.356;9.530;2022-08-03T13:02:42;2.30;;;2.10;;
3819;SDS011;1925;51.356;9.530;2022-08-03T13:05:08;1.97;;;1.87;;
3819;SDS011;1925;51.356;9.530;2022-08-03T13:07:39;6.50;;;2.13;;
3819;SDS011;1925;51.356;9.530;2022-08-03T13:10:05;2.30;;;2.10;;
3819;SDS011;1925;51.356;9.530;2022-08-03T13:12:32;2.60;;;2.20;;
3819;SDS011;1925;51.356;9.530;2022-08-03T13:15:00;1.80;;;1.70;;
3819;SDS011;1925;51.356;9.530;2022-08-03T13:17:26;1.83;;;1.70;;
3819;SDS011;1925;51.356;9.530;2022-08-03T13:19:52;4.40;;;1.90;;
3819;SDS011;1925;51.356;9.530;2022-08-03T13:22:22;1.90;;;1.80;;
3819;SDS011;1925;51.356;9.530;2022-08-03T13:24:49;2.70;;;2.13;;
3819;SDS011;1925;51.356;9.530;2022-08-03T13:27:16;2.30;;;2.20;;
3819;SDS011;1925;51.356;9.530;2022-08-03T13:29:42;2.33;;;1.47;;
3819;SDS011;1925;51.356;9.530;2022-08-03T13:32:08;3.00;;;1.77;;
3819;SDS011;1925;51.356;9.530;2022-08-03T13:34:34;2.77;;;2.57;;
3819;SDS011;1925;51.356;9.530;2022-08-03T13:37:00;2.10;;;1.90;;
3819;SDS011;1925;51.356;9.530;2022-08-03T13:39:27;2.00;;;1.90;;
3819;SDS011;1925;51.356;9.530;2022-08-03T13:41:53;3.93;;;1.80;;
3819;SDS011;1925;51.356;9.530;2022-08-03T13:44:19;3.20;;;2.27;;
3819;SDS011;1925;51.356;9.530;2022-08-03T13:46:45;3.30;;;1.90;;
3819;SDS011;1925;51.356;9.530;2022-08-03T13:49:11;2.93;;;1.73;;
3819;SDS011;1925;51.356;9.530;2022-08-03T13:51:37;2.00;;;1.90;;
3819;SDS011;1925;51.356;9.530;2022-08-03T13:54:04;11.13;;;2.33;;
3819;SDS011;1925;51.356;9.530;2022-08-03T13:56:30;2.60;;;1.80;;
3819;SDS011;1925;51.356;9.530;2022-08-03T13:58:56;1.97;;;1.77;;
3819;SDS011;1925;51.356;9.530;2022-08-03T14:01:22;2.70;;;2.20;;
3819;SDS011;1925;51.356;9.530;2022-08-03T14:03:49;2.03;;;1.80;;
3819;SDS011;1925;51.356;9.530;2022-08-03T14:06:22;2.23;;;1.87;;
3819;SDS011;1925;51.356;9.530;2022-08-03T14:08:48;1.60;;;1.50;;
3819;SDS011;1925;51.356;9.530;2022-08-03T14:11:15;1.77;;;1.67;;
3819;SDS011;1925;51.356;9.530;2022-08-03T14:13:41;1.73;;;1.50;;
3819;SDS011;1925;51.356;9.530;2022-08-03T14:16:07;6.00;;;2.13;;
3819;SDS011;1925;51.356;9.530;2022-08-03T14:18:33;2.10;;;1.90;;
3819;SDS011;1925;51.356;9.530;2022-08-03T14:20:59;1.90;;;1.80;;
3819;SDS011;1925;51.356;9.530;2022-08-03T14:23:26;2.23;;;2.10;;
3819;SDS011;1925;51.356;9.530;2022-08-03T14:25:52;2.13;;;1.47;;
3819;SDS011;1925;51.356;9.530;2022-08-03T14:28:19;1.87;;;1.77;;
3819;SDS011;1925;51.356;9.530;2022-08-03T14:30:46;1.97;;;1.87;;
3819;SDS011;1925;51.356;9.530;2022-08-03T14:33:12;2.97;;;1.97;;
3819;SDS011;1925;51.356;9.530;2022-08-03T14:35:38;3.50;;;2.03;;
3819;SDS011;1925;51.356;9.530;2022-08-03T14:38:04;2.10;;;2.00;;
3819;SDS011;1925;51.356;9.530;2022-08-03T14:40:30;1.93;;;1.80;;
3819;SDS011;1925;51.356;9.530;2022-08-03T14:42:56;1.80;;;1.47;;
3819;SDS011;1925;51.356;9.530;2022-08-03T14:45:22;2.30;;;2.20;;
3819;SDS011;1925;51.356;9.530;2022-08-03T14:47:48;3.63;;;1.80;;
3819;SDS011;1925;51.356;9.530;2022-08-03T14:50:15;1.93;;;1.83;;
3819;SDS011;1925;51.356;9.530;2022-08-03T14:52:41;2.10;;;2.00;;
3819;SDS011;1925;51.356;9.530;2022-08-03T14:55:07;2.30;;;2.10;;
3819;SDS011;1925;51.356;9.530;2022-08-03T14:57:33;2.73;;;2.10;;
3819;SDS011;1925;51.356;9.530;2022-08-03T14:59:59;1.80;;;1.70;;
3819;SDS011;1925;51.356;9.530;2022-08-03T15:02:26;2.00;;;1.90;;
3819;SDS011;1925;51.356;9.530;2022-08-03T15:04:54;4.53;;;2.00;;
3819;SDS011;1925;51.356;9.530;2022-08-03T15:07:20;1.80;;;1.70;;
3819;SDS011;1925;51.356;9.530;2022-08-03T15:09:46;2.83;;;2.40;;
3819;SDS011;1925;51.356;9.530;2022-08-03T15:12:12;1.67;;;1.57;;
3819;SDS011;1925;51.356;9.530;2022-08-03T15:14:38;2.03;;;1.83;;
3819;SDS011;1925;51.356;9.530;2022-08-03T15:17:04;2.50;;;2.30;;
3819;SDS011;1925;51.356;9.530;2022-08-03T15:19:31;2.27;;;2.07;;
3819;SDS011;1925;51.356;9.530;2022-08-03T15:21:57;2.43;;;2.23;;
3819;SDS011;1925;51.356;9.530;2022-08-03T15:24:23;2.40;;;2.20;;
3819;SDS011;1925;51.356;9.530;2022-08-03T15:26:50;3.23;;;2.03;;
3819;SDS011;1925;51.356;9.530;2022-08-03T15:29:16;1.90;;;1.80;;
3819;SDS011;1925;51.356;9.530;2022-08-03T15:31:42;4.40;;;2.10;;
3819;SDS011;1925;51.356;9.530;2022-08-03T15:34:08;2.10;;;1.73;;
3819;SDS011;1925;51.356;9.530;2022-08-03T15:36:36;2.00;;;1.83;;
3819;SDS011;1925;51.356;9.530;2022-08-03T15:39:02;1.80;;;1.70;;
3819;SDS011;1925;51.356;9.530;2022-08-03T15:41:29;2.23;;;2.03;;
3819;SDS011;1925;51.356;9.530;2022-08-03T15:43:55;2.00;;;1.60;;
3819;SDS011;1925;51.356;9.530;2022-08-03T15:46:21;2.50;;;2.30;;
3819;SDS011;1925;51.356;9.530;2022-08-03T15:48:47;2.23;;;2.10;;
3819;SDS011;1925;51.356;9.530;2022-08-03T15:51:13;1.70;;;1.60;;
3819;SDS011;1925;51.356;9.530;2022-08-03T15:53:39;2.10;;;1.80;;
3819;SDS011;1925;51.356;9.530;2022-08-03T15:56:05;2.27;;;2.17;;
3819;SDS011;1925;51.356;9.530;2022-08-03T15:58:32;2.13;;;1.93;;
3819;SDS011;1925;51.356;9.530;2022-08-03T16:00:59;2.70;;;1.87;;